createdAt,value
2022-10-08T00:00:25.939Z,14
2022-10-08T00:01:26.079Z,14.01
2022-10-08T00:02:25.920Z,14.04
2022-10-08T00:03:25.938Z,14
2022-10-08T00:04:26.142Z,14
2022-10-08T00:05:25.932Z,14.01
2022-10-08T00:06:25.969Z,13.97
2022-10-08T00:07:25.957Z,13.97
2022-10-08T00:08:28.719Z,13.93
2022-10-08T00:09:25.933Z,13.93
2022-10-08T00:10:25.979Z,13.97
2022-10-08T00:11:25.937Z,13.98
2022-10-08T00:12:25.960Z,14
2022-10-08T00:13:25.962Z,13.91
2022-10-08T00:14:25.947Z,13.76
2022-10-08T00:15:25.970Z,13.79
2022-10-08T00:16:26.323Z,13.78
2022-10-08T00:17:25.959Z,13.8
2022-10-08T00:18:26.000Z,13.83
2022-10-08T00:19:25.948Z,13.75
2022-10-08T00:20:25.961Z,13.73
2022-10-08T00:21:25.952Z,13.75
2022-10-08T00:22:25.948Z,13.75
2022-10-08T00:23:26.012Z,13.76
2022-10-08T00:24:25.956Z,13.8
2022-10-08T00:25:25.962Z,13.73
2022-10-08T00:26:25.982Z,13.83
2022-10-08T00:27:26.070Z,13.8
2022-10-08T00:28:27.454Z,13.82
2022-10-08T00:29:25.969Z,13.83
2022-10-08T00:30:25.969Z,13.83
2022-10-08T00:31:26.175Z,13.83
2022-10-08T00:32:26.008Z,13.87
2022-10-08T00:33:26.002Z,13.87
2022-10-08T00:34:27.020Z,13.85
2022-10-08T00:35:25.977Z,13.86
2022-10-08T00:36:26.019Z,13.83
2022-10-08T00:37:25.977Z,13.91
2022-10-08T00:38:26.040Z,14
2022-10-08T00:39:28.786Z,13.89
2022-10-08T00:40:25.987Z,13.93
2022-10-08T00:41:26.004Z,13.94
2022-10-08T00:42:26.001Z,14
2022-10-08T00:43:30.474Z,13.97
2022-10-08T00:44:25.993Z,13.98
2022-10-08T00:45:26.197Z,14.01
2022-10-08T00:46:26.015Z,13.87
2022-10-08T00:47:26.023Z,14.04
2022-10-08T00:48:26.034Z,13.97
2022-10-08T00:49:26.016Z,14.01
2022-10-08T00:50:29.030Z,13.97
2022-10-08T00:51:26.015Z,13.97
2022-10-08T00:52:26.018Z,13.97
2022-10-08T00:53:26.017Z,13.95
2022-10-08T00:54:26.004Z,14.01
2022-10-08T00:55:26.051Z,14.04
2022-10-08T00:56:26.004Z,13.97
2022-10-08T00:57:26.021Z,13.98
2022-10-08T00:58:26.013Z,14.04
2022-10-08T00:59:26.012Z,13.98
2022-10-08T01:00:26.018Z,14.01
2022-10-08T01:01:29.351Z,14.01
2022-10-08T01:02:26.191Z,14.03
2022-10-08T01:03:26.057Z,13.93
2022-10-08T01:04:26.051Z,14.07
2022-10-08T01:05:26.032Z,13.95
2022-10-08T01:06:26.027Z,13.94
2022-10-08T01:07:26.065Z,13.98
2022-10-08T01:08:26.032Z,13.86
2022-10-08T01:09:26.036Z,14
2022-10-08T01:10:26.113Z,14.01
2022-10-08T01:11:26.060Z,13.97
2022-10-08T01:12:29.073Z,14.07
2022-10-08T01:13:26.049Z,14.11
2022-10-08T01:14:26.050Z,14.07
2022-10-08T01:15:26.042Z,14.08
2022-10-08T01:16:26.263Z,14.04
2022-10-08T01:17:26.043Z,14.11
2022-10-08T01:18:26.057Z,14.13
2022-10-08T01:19:26.083Z,14.13
2022-10-08T01:20:26.072Z,14.11
2022-10-08T01:21:26.085Z,14.2
2022-10-08T01:22:26.048Z,14.2
2022-10-08T01:23:29.086Z,14.16
2022-10-08T01:24:26.061Z,14.12
2022-10-08T01:25:26.062Z,14.15
2022-10-08T01:26:26.056Z,14.16
2022-10-08T01:27:26.086Z,14.22
2022-10-08T01:28:29.082Z,14.2
2022-10-08T01:29:26.065Z,14.13
2022-10-08T01:30:26.072Z,14.15
2022-10-08T01:31:26.313Z,14.07
2022-10-08T01:32:26.070Z,14.07
2022-10-08T01:33:26.068Z,14.05
2022-10-08T01:34:28.904Z,14.12
2022-10-08T01:35:26.109Z,14.04
2022-10-08T01:36:26.107Z,14.05
2022-10-08T01:37:26.086Z,14.03
2022-10-08T01:38:26.079Z,14.16
2022-10-08T01:39:27.588Z,14.08
2022-10-08T01:40:26.081Z,14.04
2022-10-08T01:41:26.084Z,14.01
2022-10-08T01:42:26.088Z,14.05
2022-10-08T01:43:26.152Z,14.07
2022-10-08T01:44:26.108Z,14.07
2022-10-08T01:45:29.218Z,14.11
2022-10-08T01:46:26.100Z,14.01
2022-10-08T01:47:26.125Z,14.11
2022-10-08T01:48:26.115Z,14.07
2022-10-08T01:49:26.135Z,14.07
2022-10-08T01:50:28.986Z,14.05
2022-10-08T01:51:26.110Z,14.05
2022-10-08T01:52:26.128Z,14.05
2022-10-08T01:53:26.107Z,14.07
2022-10-08T01:54:26.698Z,13.97
2022-10-08T01:55:26.109Z,13.95
2022-10-08T01:56:29.211Z,13.95
2022-10-08T01:57:26.132Z,14.05
2022-10-08T01:58:26.126Z,14.08
2022-10-08T01:59:26.178Z,14.04
2022-10-08T02:00:26.119Z,13.97
2022-10-08T02:01:29.168Z,14.07
2022-10-08T02:02:26.383Z,14.01
2022-10-08T02:03:26.123Z,14.03
2022-10-08T02:04:26.150Z,13.97
2022-10-08T02:05:26.154Z,14.07
2022-10-08T02:06:26.161Z,14.01
2022-10-08T02:07:26.130Z,14.04
2022-10-08T02:08:26.149Z,14.04
2022-10-08T02:09:26.163Z,14.01
2022-10-08T02:10:26.137Z,14.08
2022-10-08T02:11:26.138Z,14.08
2022-10-08T02:12:29.140Z,13.95
2022-10-08T02:13:26.143Z,14.01
2022-10-08T02:14:26.164Z,14.11
2022-10-08T02:15:26.190Z,14.04
2022-10-08T02:16:26.370Z,14.12
2022-10-08T02:17:26.162Z,13.97
2022-10-08T02:18:26.150Z,13.95
2022-10-08T02:19:26.266Z,13.94
2022-10-08T02:20:26.172Z,14.07
2022-10-08T02:21:26.196Z,14.05
2022-10-08T02:22:26.193Z,14.04
2022-10-08T02:25:26.184Z,13.98
2022-10-08T02:26:26.165Z,14.08
2022-10-08T02:27:26.293Z,14.03
2022-10-08T02:28:26.420Z,14.07
2022-10-08T02:29:26.163Z,14.04
2022-10-08T02:30:26.181Z,13.98
2022-10-08T02:31:26.430Z,14.04
2022-10-08T02:32:26.169Z,13.98
2022-10-08T02:33:26.184Z,13.94
2022-10-08T02:34:26.179Z,13.97
2022-10-08T02:35:26.193Z,14
2022-10-08T02:36:26.188Z,13.91
2022-10-08T02:37:26.176Z,14.04
2022-10-08T02:38:26.206Z,13.97
2022-10-08T02:39:26.178Z,13.91
2022-10-08T02:40:26.204Z,13.97
2022-10-08T02:41:26.245Z,13.94
2022-10-08T02:42:26.199Z,13.97
2022-10-08T02:43:26.221Z,14.03
2022-10-08T02:44:26.208Z,13.97
2022-10-08T02:45:26.218Z,13.95
2022-10-08T02:46:26.464Z,13.97
2022-10-08T02:47:26.262Z,13.94
2022-10-08T02:48:26.193Z,14
2022-10-08T02:49:28.970Z,14.07
2022-10-08T02:50:26.232Z,13.95
2022-10-08T02:51:26.211Z,14
2022-10-08T02:52:26.208Z,13.93
2022-10-08T02:53:26.779Z,13.95
2022-10-08T02:54:26.355Z,13.89
2022-10-08T02:55:28.994Z,13.95
2022-10-08T02:56:26.206Z,13.91
2022-10-08T02:57:26.237Z,13.94
2022-10-08T02:58:26.221Z,13.91
2022-10-08T02:59:26.224Z,13.86
2022-10-08T03:00:26.283Z,13.97
2022-10-08T03:01:26.394Z,13.95
2022-10-08T03:02:29.496Z,13.94
2022-10-08T03:03:26.223Z,13.91
2022-10-08T03:04:26.235Z,13.89
2022-10-08T03:05:26.265Z,13.93
2022-10-08T03:06:29.107Z,13.94
2022-10-08T03:07:26.240Z,13.91
2022-10-08T03:08:26.231Z,13.95
2022-10-08T03:09:26.262Z,13.94
2022-10-08T03:10:26.279Z,13.91
2022-10-08T03:11:26.235Z,13.97
2022-10-08T03:12:26.243Z,13.89
2022-10-08T03:13:26.277Z,13.87
2022-10-08T03:14:26.235Z,13.93
2022-10-08T03:15:26.262Z,13.95
2022-10-08T03:16:26.380Z,13.85
2022-10-08T03:17:29.086Z,13.86
2022-10-08T03:18:26.272Z,13.78
2022-10-08T03:19:26.280Z,13.82
2022-10-08T03:20:26.289Z,13.82
2022-10-08T03:21:26.291Z,13.79
2022-10-08T03:22:26.290Z,13.82
2022-10-08T03:23:26.289Z,13.7
2022-10-08T03:24:26.262Z,13.76
2022-10-08T03:25:26.281Z,13.73
2022-10-08T03:26:26.286Z,13.73
2022-10-08T03:27:26.261Z,13.73
2022-10-08T03:28:29.433Z,13.65
2022-10-08T03:29:26.265Z,13.75
2022-10-08T03:30:26.360Z,13.7
2022-10-08T03:31:26.268Z,13.71
2022-10-08T03:32:26.265Z,13.78
2022-10-08T03:33:26.412Z,13.78
2022-10-08T03:34:26.306Z,13.82
2022-10-08T03:35:26.291Z,13.68
2022-10-08T03:36:26.276Z,13.76
2022-10-08T03:37:26.296Z,13.8
2022-10-08T03:38:26.279Z,13.75
2022-10-08T03:39:29.077Z,13.76
2022-10-08T03:40:26.306Z,13.67
2022-10-08T03:41:26.288Z,13.7
2022-10-08T03:42:26.316Z,13.75
2022-10-08T03:43:26.301Z,13.79
2022-10-08T03:44:26.314Z,13.93
2022-10-08T03:45:26.313Z,13.8
2022-10-08T03:46:26.576Z,13.75
2022-10-08T03:47:26.296Z,13.73
2022-10-08T03:48:26.298Z,13.8
2022-10-08T03:49:26.304Z,13.75
2022-10-08T03:50:27.531Z,13.82
2022-10-08T03:51:26.302Z,13.73
2022-10-08T03:52:26.301Z,13.8
2022-10-08T03:53:26.311Z,13.71
2022-10-08T03:54:26.312Z,13.68
2022-10-08T03:55:26.686Z,13.68
2022-10-08T03:56:26.310Z,13.7
2022-10-08T03:57:26.374Z,13.75
2022-10-08T03:58:26.346Z,13.71
2022-10-08T03:59:26.397Z,13.67
2022-10-08T04:00:26.374Z,13.71
2022-10-08T04:01:29.628Z,13.7
2022-10-08T04:02:27.069Z,13.65
2022-10-08T04:03:26.344Z,13.71
2022-10-08T04:04:30.055Z,13.64
2022-10-08T04:05:26.358Z,13.61
2022-10-08T04:06:29.157Z,13.65
2022-10-08T04:07:26.342Z,13.68
2022-10-08T04:08:26.345Z,13.7
2022-10-08T04:09:26.343Z,13.71
2022-10-08T04:10:26.355Z,13.65
2022-10-08T04:11:26.334Z,13.73
2022-10-08T04:12:29.352Z,13.7
2022-10-08T04:13:26.350Z,13.67
2022-10-08T04:14:26.934Z,13.7
2022-10-08T04:15:26.414Z,13.64
2022-10-08T04:16:26.373Z,13.68
2022-10-08T04:17:29.101Z,13.61
2022-10-08T04:18:26.353Z,13.65
2022-10-08T04:19:26.347Z,13.68
2022-10-08T04:20:26.397Z,13.64
2022-10-08T04:21:26.406Z,13.61
2022-10-08T04:22:26.380Z,13.78
2022-10-08T04:23:29.134Z,13.71
2022-10-08T04:24:26.363Z,13.67
2022-10-08T04:25:26.382Z,13.64
2022-10-08T04:26:26.358Z,13.57
2022-10-08T04:27:26.360Z,13.64
2022-10-08T04:28:29.398Z,13.57
2022-10-08T04:29:26.205Z,13.67
2022-10-08T04:30:26.406Z,13.65
2022-10-08T04:31:26.781Z,13.7
2022-10-08T04:32:26.407Z,13.8
2022-10-08T04:33:26.377Z,13.73
2022-10-08T04:34:26.370Z,13.7
2022-10-08T04:35:26.396Z,13.75
2022-10-08T04:36:26.396Z,13.65
2022-10-08T04:37:26.393Z,13.76
2022-10-08T04:38:26.411Z,13.76
2022-10-08T04:39:29.408Z,13.76
2022-10-08T04:40:27.447Z,13.75
2022-10-08T04:41:26.222Z,13.71
2022-10-08T04:42:27.451Z,13.68
2022-10-08T04:43:26.386Z,13.73
2022-10-08T04:44:26.390Z,13.75
2022-10-08T04:45:26.414Z,13.65
2022-10-08T04:46:27.724Z,13.67
2022-10-08T04:47:26.397Z,13.73
2022-10-08T04:48:26.479Z,13.7
2022-10-08T04:49:26.404Z,13.71
2022-10-08T04:50:29.552Z,13.61
2022-10-08T04:51:26.400Z,13.64
2022-10-08T04:52:26.421Z,13.65
2022-10-08T04:53:26.405Z,13.67
2022-10-08T04:54:26.450Z,13.65
2022-10-08T04:55:26.431Z,13.64
2022-10-08T04:56:27.423Z,13.61
2022-10-08T04:57:26.411Z,13.7
2022-10-08T04:58:26.414Z,13.64
2022-10-08T04:59:26.937Z,13.64
2022-10-08T05:00:26.424Z,13.65
2022-10-08T05:01:26.609Z,13.71
2022-10-08T05:02:35.159Z,13.64
2022-10-08T05:03:26.434Z,13.62
2022-10-08T05:04:26.446Z,13.54
2022-10-08T05:05:26.961Z,13.61
2022-10-08T05:06:26.454Z,13.67
2022-10-08T05:07:26.445Z,13.67
2022-10-08T05:08:29.022Z,13.76
2022-10-08T05:09:26.432Z,13.73
2022-10-08T05:10:26.629Z,13.71
2022-10-08T05:11:26.438Z,13.73
2022-10-08T05:12:26.438Z,13.71
2022-10-08T05:13:26.446Z,13.78
2022-10-08T05:14:28.685Z,13.67
2022-10-08T05:15:26.444Z,13.67
2022-10-08T05:16:26.747Z,13.68
2022-10-08T05:17:26.450Z,13.8
2022-10-08T05:18:26.314Z,13.7
2022-10-08T05:19:26.498Z,13.82
2022-10-08T05:20:26.469Z,13.82
2022-10-08T05:21:26.571Z,13.79
2022-10-08T05:22:29.250Z,13.79
2022-10-08T05:23:26.476Z,13.8
2022-10-08T05:24:26.460Z,13.76
2022-10-08T05:25:26.456Z,13.75
2022-10-08T05:27:01.730Z,13.76
2022-10-08T05:27:26.457Z,13.75
2022-10-08T05:28:26.751Z,13.75
2022-10-08T05:29:26.467Z,13.8
2022-10-08T05:30:26.800Z,13.73
2022-10-08T05:31:26.611Z,13.71
2022-10-08T05:32:26.522Z,13.85
2022-10-08T05:33:29.240Z,13.75
2022-10-08T05:34:26.537Z,13.75
2022-10-08T05:35:26.467Z,13.79
2022-10-08T05:36:26.522Z,13.8
2022-10-08T05:37:26.497Z,13.91
2022-10-08T05:38:35.465Z,13.85
2022-10-08T05:39:26.489Z,13.83
2022-10-08T05:40:26.508Z,13.85
2022-10-08T05:41:26.526Z,13.93
2022-10-08T05:42:26.538Z,13.89
2022-10-08T05:43:26.499Z,13.93
2022-10-08T05:44:29.255Z,13.91
2022-10-08T05:45:26.497Z,13.93
2022-10-08T05:46:26.704Z,13.91
2022-10-08T05:47:26.539Z,13.86
2022-10-08T05:48:26.500Z,13.87
2022-10-08T05:49:26.502Z,13.89
2022-10-08T05:50:29.382Z,13.87
2022-10-08T05:51:26.537Z,14.01
2022-10-08T05:52:27.863Z,13.97
2022-10-08T05:53:26.536Z,13.98
2022-10-08T05:54:26.536Z,13.98
2022-10-08T05:55:29.599Z,13.91
2022-10-08T05:56:26.559Z,13.98
2022-10-08T05:57:26.514Z,13.94
2022-10-08T05:58:30.832Z,13.97
2022-10-08T05:59:26.514Z,14
2022-10-08T06:00:26.511Z,13.98
2022-10-08T06:01:26.558Z,13.95
2022-10-08T06:02:26.778Z,13.98
2022-10-08T06:03:26.366Z,13.98
2022-10-08T06:04:26.684Z,13.91
2022-10-08T06:05:26.527Z,14
2022-10-08T06:06:30.820Z,14.04
2022-10-08T06:07:26.536Z,13.98
2022-10-08T06:08:27.042Z,14.01
2022-10-08T06:09:26.530Z,14.03
2022-10-08T06:10:26.548Z,14.15
2022-10-08T06:11:26.565Z,14.07
2022-10-08T06:12:26.650Z,14.12
2022-10-08T06:13:26.544Z,14.04
2022-10-08T06:14:26.627Z,14.07
2022-10-08T06:15:26.572Z,14.13
2022-10-08T06:16:27.019Z,14.08
2022-10-08T06:17:30.752Z,14.12
2022-10-08T06:18:26.572Z,14.12
2022-10-08T06:19:26.556Z,14.16
2022-10-08T06:20:32.045Z,14.05
2022-10-08T06:21:26.573Z,14.12
2022-10-08T06:22:29.608Z,14.13
2022-10-08T06:23:26.556Z,14.16
2022-10-08T06:24:26.619Z,14.16
2022-10-08T06:25:26.399Z,14.19
2022-10-08T06:26:28.655Z,14.25
2022-10-08T06:27:26.583Z,14.15
2022-10-08T06:28:29.868Z,14.19
2022-10-08T06:29:26.566Z,14.16
2022-10-08T06:30:26.597Z,14.22
2022-10-08T06:31:26.847Z,14.26
2022-10-08T06:32:26.574Z,14.26
2022-10-08T06:33:29.375Z,14.18
2022-10-08T06:34:26.434Z,14.15
2022-10-08T06:35:26.575Z,14.25
2022-10-08T06:36:26.608Z,14.16
2022-10-08T06:37:26.587Z,14.22
2022-10-08T06:38:26.610Z,14.19
2022-10-08T06:39:29.438Z,14.26
2022-10-08T06:40:26.600Z,14.18
2022-10-08T06:41:26.601Z,14.25
2022-10-08T06:42:26.600Z,14.2
2022-10-08T06:43:26.590Z,14.28
2022-10-08T06:44:29.798Z,14.3
2022-10-08T06:45:26.631Z,14.31
2022-10-08T06:46:26.932Z,14.34
2022-10-08T06:47:26.603Z,14.43
2022-10-08T06:48:26.629Z,14.38
2022-10-08T06:49:26.643Z,14.49
2022-10-08T06:50:29.632Z,14.55
2022-10-08T06:51:26.621Z,14.59
2022-10-08T06:52:26.444Z,14.61
2022-10-08T06:53:26.607Z,14.67
2022-10-08T06:54:26.639Z,14.73
2022-10-08T06:55:29.718Z,14.71
2022-10-08T06:56:26.635Z,14.81
2022-10-08T06:57:26.613Z,14.86
2022-10-08T06:58:26.614Z,14.92
2022-10-08T06:59:26.707Z,14.94
2022-10-08T07:00:26.645Z,14.96
2022-10-08T07:01:33.579Z,14.96
2022-10-08T07:02:29.590Z,14.92
2022-10-08T07:03:26.626Z,15.1
2022-10-08T07:04:30.636Z,15.02
2022-10-08T07:05:26.633Z,15.08
2022-10-08T07:06:29.665Z,15.07
2022-10-08T07:07:26.632Z,15.17
2022-10-08T07:08:26.647Z,15.18
2022-10-08T07:09:26.685Z,15.19
2022-10-08T07:10:29.773Z,15.25
2022-10-08T07:11:26.684Z,15.25
2022-10-08T07:12:26.673Z,15.25
2022-10-08T07:13:26.649Z,15.26
2022-10-08T07:14:26.662Z,15.35
2022-10-08T07:15:26.799Z,15.45
2022-10-08T07:16:27.358Z,15.48
2022-10-08T07:17:30.030Z,15.55
2022-10-08T07:18:27.136Z,15.63
2022-10-08T07:19:26.684Z,15.6
2022-10-08T07:20:26.659Z,15.69
2022-10-08T07:21:26.810Z,15.69
2022-10-08T07:22:26.662Z,15.7
2022-10-08T07:23:26.680Z,15.73
2022-10-08T07:24:26.665Z,15.75
2022-10-08T07:25:26.658Z,15.78
2022-10-08T07:26:26.780Z,15.84
2022-10-08T07:27:26.692Z,15.83
2022-10-08T07:28:26.839Z,15.91
2022-10-08T07:29:26.674Z,15.87
2022-10-08T07:30:26.702Z,15.91
2022-10-08T07:31:27.012Z,16.05
2022-10-08T07:32:26.798Z,16.02
2022-10-08T07:33:26.690Z,16.1
2022-10-08T07:34:26.777Z,16.31
2022-10-08T07:35:26.678Z,16.32
2022-10-08T07:36:26.695Z,16.29
2022-10-08T07:37:26.678Z,16.31
2022-10-08T07:38:26.688Z,16.25
2022-10-08T07:39:26.686Z,16.34
2022-10-08T07:40:26.700Z,16.39
2022-10-08T07:41:26.712Z,16.34
2022-10-08T07:42:26.728Z,16.43
2022-10-08T07:43:26.717Z,16.43
2022-10-08T07:44:26.695Z,16.46
2022-10-08T07:45:26.904Z,16.49
2022-10-08T07:46:26.712Z,16.46
2022-10-08T07:47:26.707Z,16.57
2022-10-08T07:48:29.297Z,16.86
2022-10-08T07:49:29.740Z,16.95
2022-10-08T07:50:26.707Z,17.09
2022-10-08T07:51:26.734Z,16.99
2022-10-08T07:52:26.700Z,17.07
2022-10-08T07:53:26.726Z,17.07
2022-10-08T07:54:26.709Z,17.3
2022-10-08T07:55:26.560Z,17.37
2022-10-08T07:56:26.735Z,17.24
2022-10-08T07:57:26.719Z,17.38
2022-10-08T07:58:26.763Z,17.31
2022-10-08T07:59:26.751Z,17.38
2022-10-08T08:00:30.754Z,17.52
2022-10-08T08:01:26.973Z,17.49
2022-10-08T08:02:26.957Z,17.5
2022-10-08T08:03:26.730Z,17.52
2022-10-08T08:04:26.745Z,17.5
2022-10-08T08:05:26.764Z,17.53
2022-10-08T08:06:26.760Z,17.54
2022-10-08T08:07:26.740Z,17.52
2022-10-08T08:08:26.747Z,17.49
2022-10-08T08:09:26.799Z,17.5
2022-10-08T08:10:26.850Z,17.46
2022-10-08T08:11:29.625Z,17.47
2022-10-08T08:12:27.310Z,17.56
2022-10-08T08:13:28.197Z,17.49
2022-10-08T08:14:26.783Z,17.49
2022-10-08T08:15:26.876Z,17.42
2022-10-08T08:16:27.053Z,17.46
2022-10-08T08:17:26.795Z,17.47
2022-10-08T08:18:26.764Z,17.46
2022-10-08T08:19:29.839Z,17.42
2022-10-08T08:20:26.933Z,17.5
2022-10-08T08:21:26.841Z,17.42
2022-10-08T08:22:29.809Z,17.5
2022-10-08T08:23:26.771Z,17.59
2022-10-08T08:24:26.774Z,17.52
2022-10-08T08:25:26.847Z,17.69
2022-10-08T08:26:26.795Z,17.72
2022-10-08T08:27:26.838Z,17.91
2022-10-08T08:28:26.942Z,17.82
2022-10-08T08:29:26.970Z,17.91
2022-10-08T08:30:26.851Z,18
2022-10-08T08:31:27.034Z,18.05
2022-10-08T08:32:32.774Z,18.26
2022-10-08T08:33:29.799Z,18.15
2022-10-08T08:34:26.787Z,18.33
2022-10-08T08:35:26.813Z,18.36
2022-10-08T08:36:26.819Z,18.53
2022-10-08T08:37:26.813Z,18.66
2022-10-08T08:38:26.796Z,18.82
2022-10-08T08:39:26.802Z,19
2022-10-08T08:40:26.895Z,19.23
2022-10-08T08:41:26.804Z,19.37
2022-10-08T08:42:26.842Z,19.52
2022-10-08T08:43:26.796Z,19.47
2022-10-08T08:44:29.970Z,19.57
2022-10-08T08:45:50.385Z,19.74
2022-10-08T08:46:27.123Z,19.89
2022-10-08T08:47:26.833Z,20
2022-10-08T08:48:26.810Z,20.24
2022-10-08T08:49:29.622Z,20.59
2022-10-08T08:50:26.801Z,20.12
2022-10-08T08:51:26.838Z,20.32
2022-10-08T08:52:26.816Z,20.53
2022-10-08T08:53:26.831Z,20.77
2022-10-08T08:54:26.814Z,21.03
2022-10-08T08:55:29.664Z,21
2022-10-08T08:56:26.847Z,20.86
2022-10-08T08:57:26.824Z,20.95
2022-10-08T08:58:26.829Z,20.8
2022-10-08T08:59:26.831Z,20.74
2022-10-08T09:00:29.946Z,21.03
2022-10-08T09:01:27.220Z,21.14
2022-10-08T09:02:26.943Z,21.04
2022-10-08T09:03:26.871Z,20.96
2022-10-08T09:04:26.958Z,21.32
2022-10-08T09:05:30.168Z,21.58
2022-10-08T09:06:29.881Z,21.58
2022-10-08T09:07:29.612Z,21.15
2022-10-08T09:08:26.844Z,21.14
2022-10-08T09:09:26.908Z,21.38
2022-10-08T09:10:26.858Z,21.63
2022-10-08T09:11:29.892Z,21.17
2022-10-08T09:12:26.850Z,21.03
2022-10-08T09:13:26.871Z,20.93
2022-10-08T09:14:26.856Z,21.04
2022-10-08T09:15:26.866Z,21.15
2022-10-08T09:16:27.241Z,21.26
2022-10-08T09:17:26.864Z,21.63
2022-10-08T09:18:26.893Z,21.96
2022-10-08T09:19:26.884Z,22.14
2022-10-08T09:20:27.066Z,21.91
2022-10-08T09:21:26.878Z,21.96
2022-10-08T09:22:29.900Z,21.37
2022-10-08T09:23:26.875Z,21.84
2022-10-08T09:24:26.864Z,21.96
2022-10-08T09:25:26.898Z,22.01
2022-10-08T09:26:26.891Z,21.94
2022-10-08T09:27:26.989Z,22.07
2022-10-08T09:28:27.029Z,22
2022-10-08T09:29:26.886Z,22.01
2022-10-08T09:30:27.101Z,21.99
2022-10-08T09:31:27.204Z,21.72
2022-10-08T09:32:26.905Z,21.43
2022-10-08T09:33:29.807Z,21.43
2022-10-08T09:34:26.733Z,21.59
2022-10-08T09:35:26.911Z,21.35
2022-10-08T09:36:26.922Z,21.75
2022-10-08T09:37:26.901Z,22.01
2022-10-08T09:38:26.908Z,22.22
2022-10-08T09:39:26.909Z,22.49
2022-10-08T09:40:26.909Z,22.71
2022-10-08T09:41:27.003Z,22.67
2022-10-08T09:42:26.909Z,22.91
2022-10-08T09:43:26.916Z,23.04
2022-10-08T09:44:29.950Z,23.18
2022-10-08T09:45:26.952Z,23.39
2022-10-08T09:46:28.383Z,23.51
2022-10-08T09:47:26.915Z,23.86
2022-10-08T09:48:26.994Z,23.56
2022-10-08T09:49:26.784Z,23.13
2022-10-08T09:50:26.920Z,23.25
2022-10-08T09:51:26.962Z,23.28
2022-10-08T09:52:26.916Z,23.16
2022-10-08T09:53:26.937Z,22.59
2022-10-08T09:54:26.941Z,22.56
2022-10-08T09:55:26.937Z,22.37
2022-10-08T09:56:26.949Z,22.43
2022-10-08T09:57:26.950Z,22.37
2022-10-08T09:58:26.950Z,22.34
2022-10-08T09:59:27.060Z,21.99
2022-10-08T10:00:26.945Z,21.92
2022-10-08T10:01:27.292Z,21.84
2022-10-08T10:02:26.945Z,21.7
2022-10-08T10:03:27.020Z,21.83
2022-10-08T10:04:26.941Z,21.85
2022-10-08T10:05:26.981Z,21.58
2022-10-08T10:06:26.992Z,21.63
2022-10-08T10:07:26.976Z,21.44
2022-10-08T10:08:26.949Z,21.32
2022-10-08T10:09:26.979Z,21.41
2022-10-08T10:10:26.961Z,21.59
2022-10-08T10:11:26.971Z,21.6
2022-10-08T10:12:26.955Z,21.75
2022-10-08T10:13:27.669Z,21.83
2022-10-08T10:14:26.965Z,22.18
2022-10-08T10:15:26.970Z,22.38
2022-10-08T10:16:29.993Z,22.36
2022-10-08T10:17:26.966Z,22.56
2022-10-08T10:18:27.223Z,22.65
2022-10-08T10:19:26.984Z,22.41
2022-10-08T10:20:26.998Z,22.36
2022-10-08T10:21:27.032Z,22.15
2022-10-08T10:22:26.974Z,21.91
2022-10-08T10:23:26.995Z,22.15
2022-10-08T10:24:26.989Z,22.34
2022-10-08T10:25:27.023Z,22.34
2022-10-08T10:26:27.054Z,22.28
2022-10-08T10:27:28.095Z,22.1
2022-10-08T10:28:27.240Z,22.01
2022-10-08T10:29:27.034Z,22.1
2022-10-08T10:30:27.040Z,22.1
2022-10-08T10:31:27.158Z,22.18
2022-10-08T10:32:33.346Z,22.47
2022-10-08T10:33:27.014Z,22.47
2022-10-08T10:34:27.009Z,22.61
2022-10-08T10:35:26.997Z,22.77
2022-10-08T10:36:27.020Z,22.63
2022-10-08T10:37:27.037Z,22.65
2022-10-08T10:38:29.774Z,22.93
2022-10-08T10:39:27.042Z,22.76
2022-10-08T10:40:27.037Z,22.95
2022-10-08T10:41:27.013Z,23.01
2022-10-08T10:42:27.073Z,23.04
2022-10-08T10:43:27.048Z,23.32
2022-10-08T10:44:27.026Z,23.49
2022-10-08T10:45:27.061Z,23.44
2022-10-08T10:46:27.308Z,23.74
2022-10-08T10:47:33.219Z,23.79
2022-10-08T10:48:30.077Z,23.94
2022-10-08T10:49:30.073Z,23.94
2022-10-08T10:50:27.045Z,23.88
2022-10-08T10:51:27.037Z,23.84
2022-10-08T10:52:27.027Z,23.88
2022-10-08T10:53:26.906Z,23.89
2022-10-08T10:54:27.045Z,23.84
2022-10-08T10:55:27.061Z,23.79
2022-10-08T10:56:27.039Z,23.56
2022-10-08T10:57:27.049Z,23.59
2022-10-08T10:58:27.092Z,23.66
2022-10-08T10:59:27.053Z,23.36
2022-10-08T11:00:30.113Z,23.56
2022-10-08T11:01:27.345Z,23.56
2022-10-08T11:02:27.322Z,23.44
2022-10-08T11:03:26.897Z,23.49
2022-10-08T11:04:27.076Z,23.7
2022-10-08T11:05:27.170Z,23.85
2022-10-08T11:06:27.062Z,23.84
2022-10-08T11:07:27.134Z,23.66
2022-10-08T11:08:27.079Z,23.82
2022-10-08T11:09:30.068Z,23.81
2022-10-08T11:10:27.069Z,23.79
2022-10-08T11:11:33.276Z,23.74
2022-10-08T11:12:27.095Z,23.63
2022-10-08T11:13:27.078Z,23.67
2022-10-08T11:14:27.072Z,23.7
2022-10-08T11:15:27.079Z,23.82
2022-10-08T11:16:27.260Z,23.42
2022-10-08T11:17:27.139Z,23.58
2022-10-08T11:18:27.630Z,23.64
2022-10-08T11:19:27.144Z,23.42
2022-10-08T11:20:27.110Z,23.4
2022-10-08T11:21:27.099Z,23.47
2022-10-08T11:22:29.970Z,23.18
2022-10-08T11:23:27.112Z,23.4
2022-10-08T11:24:27.099Z,23.33
2022-10-08T11:25:27.623Z,23.23
2022-10-08T11:26:28.072Z,23.11
2022-10-08T11:27:28.030Z,22.92
2022-10-08T11:28:27.342Z,22.99
2022-10-08T11:29:27.678Z,23.06
2022-10-08T11:30:27.102Z,23.23
2022-10-08T11:31:27.414Z,23.13
2022-10-08T11:32:27.186Z,23.25
2022-10-08T11:33:30.267Z,23.42
2022-10-08T11:34:27.125Z,22.78
2022-10-08T11:35:27.135Z,23.28
2022-10-08T11:36:33.267Z,23.44
2022-10-08T11:37:27.181Z,23.39
2022-10-08T11:38:28.298Z,23.36
2022-10-08T11:39:27.131Z,23.55
2022-10-08T11:40:27.124Z,23.16
2022-10-08T11:41:27.283Z,23.29
2022-10-08T11:42:27.140Z,23.01
2022-10-08T11:43:27.143Z,23.07
2022-10-08T11:44:27.131Z,22.98
2022-10-08T11:45:27.154Z,23.02
2022-10-08T11:46:27.560Z,22.86
2022-10-08T11:47:27.154Z,22.51
2022-10-08T11:48:27.142Z,22.62
2022-10-08T11:49:30.006Z,22.3
2022-10-08T11:50:27.161Z,22.23
2022-10-08T11:51:27.177Z,22.18
2022-10-08T11:52:27.167Z,21.99
2022-10-08T11:53:27.216Z,21.94
2022-10-08T11:54:27.140Z,21.75
2022-10-08T11:55:27.147Z,21.78
2022-10-08T11:56:27.150Z,21.78
2022-10-08T11:57:35.097Z,21.72
2022-10-08T11:58:27.158Z,21.74
2022-10-08T11:59:27.187Z,21.62
2022-10-08T12:00:29.924Z,21.62
2022-10-08T12:01:27.158Z,21.77
2022-10-08T12:02:27.674Z,21.83
2022-10-08T12:03:27.735Z,21.94
2022-10-08T12:04:27.175Z,22.01
2022-10-08T12:05:27.202Z,22.08
2022-10-08T12:06:27.185Z,22.15
2022-10-08T12:07:27.187Z,22.04
2022-10-08T12:08:27.186Z,22.04
2022-10-08T12:09:27.032Z,21.81
2022-10-08T12:10:27.187Z,21.85
2022-10-08T12:11:29.971Z,22.07
2022-10-08T12:12:27.197Z,21.83
2022-10-08T12:13:27.205Z,21.77
2022-10-08T12:14:27.171Z,21.99
2022-10-08T12:15:27.209Z,22.03
2022-10-08T12:16:27.392Z,22.19
2022-10-08T12:17:27.201Z,22.4
2022-10-08T12:18:30.845Z,22.62
2022-10-08T12:19:27.199Z,22.58
2022-10-08T12:20:28.215Z,22.52
2022-10-08T12:21:27.237Z,22.47
2022-10-08T12:22:27.272Z,22.43
2022-10-08T12:23:27.207Z,22.31
2022-10-08T12:24:28.379Z,22.26
2022-10-08T12:25:27.204Z,22.21
2022-10-08T12:26:27.605Z,22.31
2022-10-08T12:27:27.226Z,22.12
2022-10-08T12:28:27.415Z,22.18
2022-10-08T12:29:27.240Z,22.16
2022-10-08T12:30:27.238Z,22.12
2022-10-08T12:31:27.577Z,22.19
2022-10-08T12:32:27.229Z,22.31
2022-10-08T12:33:27.219Z,22.23
2022-10-08T12:34:27.233Z,22.3
2022-10-08T12:35:28.268Z,22.12
2022-10-08T12:36:27.222Z,22.28
2022-10-08T12:37:27.266Z,22.23
2022-10-08T12:38:27.243Z,22.22
2022-10-08T12:39:27.229Z,22.07
2022-10-08T12:40:27.231Z,22.15
2022-10-08T12:41:27.237Z,22.01
2022-10-08T12:42:27.367Z,22.01
2022-10-08T12:43:30.035Z,22.03
2022-10-08T12:44:27.292Z,21.99
2022-10-08T12:45:27.362Z,22.15
2022-10-08T12:46:27.499Z,21.97
2022-10-08T12:47:27.284Z,22.03
2022-10-08T12:48:27.249Z,21.99
2022-10-08T12:49:27.244Z,22.12
2022-10-08T12:50:27.248Z,22.06
2022-10-08T12:51:27.263Z,22.26
2022-10-08T12:52:27.285Z,22.03
2022-10-08T12:53:27.417Z,22.31
2022-10-08T12:54:28.367Z,22.4
2022-10-08T12:55:27.271Z,22.43
2022-10-08T12:56:27.264Z,22.44
2022-10-08T12:57:27.276Z,22.26
2022-10-08T12:58:27.264Z,22.21